< < Back
Terminal Aerodrome Forecast


Current Version              Previous Versions:   1  2  3  4  5  6  7  8  9  

Terminal Aerodrome Forecast

564
FTUS42 KJAX 281721
TAFJAX
TAF
KJAX 281721Z 2818/2918 25012G22KT P6SM SKC
     FM290000 33005KT P6SM SKC=

Latest METAR

843
SAUS80 KWBC 282300
MTRJAX
METAR KJAX 282256Z 30010KT 10SM FEW250 15/M02 A3013 RMK AO2 SLP202
T01501017


USA.gov is the U.S. government's official web portal to all federal, state and local government web resources and services.